createdAt,value
2022-11-02T00:00:13.541Z,31.04
2022-11-02T00:01:13.567Z,15.72
2022-11-02T00:02:13.564Z,6.28
2022-11-02T00:03:14.271Z,7.88
2022-11-02T00:04:13.210Z,15.00
2022-11-02T00:05:18.206Z,16.04
2022-11-02T00:06:13.561Z,17.32
2022-11-02T00:07:13.745Z,24.68
2022-11-02T00:08:13.695Z,16.96
2022-11-02T00:09:13.626Z,37.00
2022-11-02T00:10:13.829Z,22.40
2022-11-02T00:11:14.087Z,26.08
2022-11-02T00:12:13.233Z,23.84
2022-11-02T00:13:13.429Z,8.76
2022-11-02T00:14:13.226Z,26.16
2022-11-02T00:15:13.383Z,24.88
2022-11-02T00:16:13.287Z,23.96
2022-11-02T00:17:13.226Z,15.12
2022-11-02T00:18:13.446Z,13.24
2022-11-02T00:19:13.286Z,12.60
2022-11-02T00:20:13.372Z,30.28
2022-11-02T00:21:13.828Z,16.88
2022-11-02T00:22:14.199Z,14.88
2022-11-02T00:23:13.478Z,13.24
2022-11-02T00:24:13.478Z,25.24
2022-11-02T00:25:13.775Z,37.08
2022-11-02T00:26:13.881Z,41.20
2022-11-02T00:27:14.053Z,26.04
2022-11-02T00:28:13.137Z,13.08
2022-11-02T00:29:13.208Z,23.96
2022-11-02T00:30:13.217Z,38.32
2022-11-02T00:31:13.168Z,26.88
2022-11-02T00:32:13.554Z,25.12
2022-11-02T00:33:13.926Z,18.84
2022-11-02T00:34:12.802Z,14.60
2022-11-02T00:35:13.713Z,36.40
2022-11-02T00:36:13.619Z,14.36
2022-11-02T00:37:13.762Z,24.24
2022-11-02T00:38:13.678Z,21.16
2022-11-02T00:39:13.642Z,17.60
2022-11-02T00:40:13.860Z,23.12
2022-11-02T00:41:14.085Z,24.00
2022-11-02T00:42:12.973Z,13.04
2022-11-02T00:43:14.230Z,15.96
2022-11-02T00:44:13.191Z,24.52
2022-11-02T00:45:13.122Z,25.92
2022-11-02T00:46:13.650Z,25.08
2022-11-02T00:47:14.263Z,35.24
2022-11-02T00:48:13.597Z,17.76
2022-11-02T00:49:13.626Z,23.24
2022-11-02T00:50:13.794Z,13.36
2022-11-02T00:51:14.138Z,32.32
2022-11-02T00:52:13.328Z,18.56
2022-11-02T00:53:13.394Z,16.44
2022-11-02T00:54:13.460Z,24.28
2022-11-02T00:55:13.365Z,43.20
2022-11-02T00:56:13.304Z,29.96
2022-11-02T00:57:13.250Z,22.68
2022-11-02T00:58:13.250Z,20.96
2022-11-02T00:59:13.381Z,28.72
2022-11-02T01:00:13.258Z,29.76
2022-11-02T01:01:13.191Z,32.56
2022-11-02T01:02:13.764Z,28.72
2022-11-02T01:03:13.035Z,27.72
2022-11-02T01:04:13.154Z,12.08
2022-11-02T01:05:13.125Z,20.20
2022-11-02T01:06:13.153Z,33.20
2022-11-02T01:07:13.059Z,18.48
2022-11-02T01:08:13.373Z,43.96
2022-11-02T01:09:13.299Z,28.84
2022-11-02T01:10:13.311Z,17.88
2022-11-02T01:11:13.283Z,43.92
2022-11-02T01:12:13.144Z,21.04
2022-11-02T01:13:13.097Z,18.04
2022-11-02T01:14:13.257Z,18.48
2022-11-02T01:15:13.173Z,21.60
2022-11-02T01:16:13.321Z,9.08
2022-11-02T01:17:13.490Z,33.36
2022-11-02T01:18:13.488Z,34.72
2022-11-02T01:19:13.788Z,21.84
2022-11-02T01:20:13.604Z,9.56
2022-11-02T01:21:13.455Z,35.08
2022-11-02T01:22:13.482Z,44.56
2022-11-02T01:23:13.405Z,29.68
2022-11-02T01:24:13.401Z,13.20
2022-11-02T01:25:13.306Z,39.68
2022-11-02T01:26:13.334Z,44.64
2022-11-02T01:27:13.545Z,38.88
2022-11-02T01:28:13.501Z,21.16
2022-11-02T01:29:13.973Z,26.76
2022-11-02T01:30:12.814Z,30.16
2022-11-02T01:31:13.771Z,37.36
2022-11-02T01:32:13.926Z,33.92
2022-11-02T01:33:13.037Z,38.96
2022-11-02T01:34:13.000Z,36.36
2022-11-02T01:35:13.158Z,47.88
2022-11-02T01:36:13.315Z,21.76
2022-11-02T01:37:13.218Z,30.28
2022-11-02T01:38:13.342Z,25.20
2022-11-02T01:39:13.375Z,26.40
2022-11-02T01:40:13.307Z,14.08
2022-11-02T01:41:13.154Z,18.36
2022-11-02T01:42:12.950Z,28.48
2022-11-02T01:43:12.782Z,23.28
2022-11-02T01:44:13.833Z,25.44
2022-11-02T01:45:13.801Z,26.56
2022-11-02T01:46:13.957Z,31.48
2022-11-02T01:47:12.823Z,25.76
2022-11-02T01:48:13.765Z,27.40
2022-11-02T01:49:13.676Z,20.24
2022-11-02T01:50:13.717Z,19.40
2022-11-02T01:51:13.555Z,16.64
2022-11-02T01:52:13.575Z,27.16
2022-11-02T01:53:13.711Z,18.24
2022-11-02T01:54:13.870Z,30.60
2022-11-02T01:55:13.069Z,38.44
2022-11-02T01:56:13.628Z,24.40
2022-11-02T01:57:13.906Z,22.60
2022-11-02T01:58:12.852Z,27.80
2022-11-02T01:59:14.156Z,15.24
2022-11-02T02:00:13.385Z,19.00
2022-11-02T02:01:13.668Z,27.74
2022-11-02T02:02:14.120Z,36.80
2022-11-02T02:03:13.194Z,18.20
2022-11-02T02:04:13.340Z,46.40
2022-11-02T02:05:13.196Z,42.55
2022-11-02T02:06:13.201Z,41.40
2022-11-02T02:07:13.148Z,17.08
2022-11-02T02:08:13.199Z,19.24
2022-11-02T02:09:13.428Z,14.56
2022-11-02T02:10:13.628Z,22.68
2022-11-02T02:11:13.439Z,8.72
2022-11-02T02:12:13.626Z,14.92
2022-11-02T02:13:13.735Z,26.60
2022-11-02T02:14:13.579Z,21.64
2022-11-02T02:15:13.619Z,16.64
2022-11-02T02:16:13.556Z,18.80
2022-11-02T02:17:13.649Z,10.56
2022-11-02T02:18:13.973Z,14.76
2022-11-02T02:19:12.884Z,27.92
2022-11-02T02:20:14.064Z,25.52
2022-11-02T02:21:12.952Z,13.84
2022-11-02T02:22:12.954Z,6.40
2022-11-02T02:23:12.865Z,33.84
2022-11-02T02:24:14.072Z,11.36
2022-11-02T02:25:13.106Z,20.40
2022-11-02T02:26:13.204Z,28.16
2022-11-02T02:27:13.413Z,22.72
2022-11-02T02:28:13.596Z,11.52
2022-11-02T02:29:13.541Z,26.20
2022-11-02T02:30:13.570Z,20.16
2022-11-02T02:31:13.473Z,29.48
2022-11-02T02:32:13.316Z,31.52
2022-11-02T02:33:13.516Z,26.48
2022-11-02T02:34:13.559Z,15.36
2022-11-02T02:35:13.718Z,5.28
2022-11-02T02:36:13.623Z,7.32
2022-11-02T02:37:13.590Z,16.28
2022-11-02T02:38:13.922Z,19.72
2022-11-02T02:39:12.853Z,28.96
2022-11-02T02:40:13.781Z,16.28
2022-11-02T02:41:13.882Z,13.64
2022-11-02T02:42:13.867Z,15.72
2022-11-02T02:43:14.099Z,26.96
2022-11-02T02:44:13.025Z,7.96
2022-11-02T02:45:12.883Z,20.12
2022-11-02T02:46:14.041Z,26.60
2022-11-02T02:47:12.958Z,10.48
2022-11-02T02:48:13.032Z,9.52
2022-11-02T02:49:12.882Z,16.52
2022-11-02T02:50:13.624Z,20.60
2022-11-02T02:51:13.910Z,14.24
2022-11-02T02:52:13.269Z,7.00
2022-11-02T02:53:13.144Z,21.24
2022-11-02T02:54:13.323Z,7.48
2022-11-02T02:55:14.827Z,23.84
2022-11-02T02:56:14.189Z,13.80
2022-11-02T02:57:13.266Z,14.48
2022-11-02T02:58:13.301Z,14.68
2022-11-02T02:59:13.162Z,12.00
2022-11-02T03:00:13.337Z,5.08
2022-11-02T03:01:13.480Z,10.56
2022-11-02T03:02:13.531Z,9.16
2022-11-02T03:03:13.977Z,13.84
2022-11-02T03:04:12.907Z,9.04
2022-11-02T03:05:12.876Z,16.72
2022-11-02T03:06:13.928Z,20.56
2022-11-02T03:07:12.996Z,7.52
2022-11-02T03:08:12.889Z,9.68
2022-11-02T03:09:13.408Z,4.44
2022-11-02T03:10:13.463Z,14.36
2022-11-02T03:11:13.547Z,16.44
2022-11-02T03:12:13.422Z,22.40
2022-11-02T03:13:13.245Z,16.44
2022-11-02T03:14:13.592Z,7.36
2022-11-02T03:15:13.591Z,10.16
2022-11-02T03:16:13.504Z,16.64
2022-11-02T03:17:13.360Z,13.16
2022-11-02T03:18:13.227Z,12.60
2022-11-02T03:19:13.091Z,9.00
2022-11-02T03:20:13.208Z,10.72
2022-11-02T03:21:13.166Z,18.92
2022-11-02T03:22:13.293Z,17.52
2022-11-02T03:23:13.211Z,5.68
2022-11-02T03:24:13.262Z,12.36
2022-11-02T03:25:13.082Z,8.28
2022-11-02T03:26:13.283Z,3.84
2022-11-02T03:27:13.422Z,12.24
2022-11-02T03:28:13.432Z,15.24
2022-11-02T03:29:13.723Z,22.72
2022-11-02T03:30:13.565Z,14.16
2022-11-02T03:31:13.775Z,8.64
2022-11-02T03:32:13.878Z,26.92
2022-11-02T03:33:13.704Z,19.16
2022-11-02T03:34:14.039Z,25.84
2022-11-02T03:35:12.989Z,22.44
2022-11-02T03:36:13.035Z,41.84
2022-11-02T03:37:13.085Z,17.60
2022-11-02T03:38:13.390Z,23.80
2022-11-02T03:39:13.323Z,25.60
2022-11-02T03:40:13.806Z,38.68
2022-11-02T03:41:13.799Z,41.28
2022-11-02T03:42:13.720Z,16.52
2022-11-02T03:43:13.853Z,22.60
2022-11-02T03:44:13.738Z,21.56
2022-11-02T03:45:13.683Z,17.56
2022-11-02T03:46:13.480Z,20.40
2022-11-02T03:47:13.823Z,23.88
2022-11-02T03:48:14.103Z,17.84
2022-11-02T03:49:12.984Z,27.76
2022-11-02T03:50:12.872Z,25.56
2022-11-02T03:51:13.933Z,27.04
2022-11-02T03:52:12.868Z,28.64
2022-11-02T03:53:13.781Z,27.32
2022-11-02T03:54:13.812Z,20.04
2022-11-02T03:55:13.933Z,28.04
2022-11-02T03:56:13.126Z,24.60
2022-11-02T03:57:13.052Z,18.84
2022-11-02T03:58:13.355Z,16.28
2022-11-02T03:59:13.228Z,8.12
2022-11-02T04:00:13.078Z,9.04
2022-11-02T04:01:13.174Z,16.80
2022-11-02T04:02:13.185Z,14.04
2022-11-02T04:03:18.311Z,16.52
2022-11-02T04:04:13.946Z,18.60
2022-11-02T04:05:12.945Z,17.76
2022-11-02T04:06:12.903Z,20.08
2022-11-02T04:07:13.214Z,37.08
2022-11-02T04:08:13.569Z,11.24
2022-11-02T04:09:13.469Z,16.52
2022-11-02T04:10:13.717Z,7.96
2022-11-02T04:11:13.608Z,12.64
2022-11-02T04:12:13.719Z,17.08
2022-11-02T04:13:13.734Z,15.52
2022-11-02T04:14:13.696Z,19.92
2022-11-02T04:15:13.898Z,17.80
2022-11-02T04:16:12.829Z,13.28
2022-11-02T04:17:13.705Z,31.16
2022-11-02T04:18:13.600Z,15.60
2022-11-02T04:19:13.497Z,16.96
2022-11-02T04:20:13.407Z,29.68
2022-11-02T04:21:13.540Z,27.20
2022-11-02T04:22:13.353Z,34.00
2022-11-02T04:23:13.349Z,29.60
2022-11-02T04:24:13.161Z,26.24
2022-11-02T04:25:13.609Z,17.64
2022-11-02T04:26:13.532Z,16.28
2022-11-02T04:27:16.754Z,30.08
2022-11-02T04:28:13.715Z,25.68
2022-11-02T04:29:13.570Z,22.16
2022-11-02T04:30:13.547Z,26.20
2022-11-02T04:31:13.425Z,23.40
2022-11-02T04:32:13.538Z,18.56
2022-11-02T04:33:13.715Z,14.40
2022-11-02T04:34:13.719Z,19.88
2022-11-02T04:35:13.569Z,7.48
2022-11-02T04:36:13.514Z,10.64
2022-11-02T04:37:13.621Z,13.56
2022-11-02T04:38:13.564Z,10.28
2022-11-02T04:39:13.560Z,11.80
2022-11-02T04:40:13.494Z,17.24
2022-11-02T04:41:13.843Z,16.56
2022-11-02T04:42:14.411Z,11.12
2022-11-02T04:43:13.493Z,16.16
2022-11-02T04:44:13.371Z,36.12
2022-11-02T04:45:13.369Z,30.04
2022-11-02T04:46:13.813Z,23.88
2022-11-02T04:47:13.750Z,19.96
2022-11-02T04:48:13.738Z,20.40
2022-11-02T04:49:13.804Z,29.84
2022-11-02T04:50:13.755Z,48.92
2022-11-02T04:51:13.652Z,32.20
2022-11-02T04:52:13.724Z,17.24
2022-11-02T04:53:13.908Z,32.88
2022-11-02T04:54:12.830Z,26.48
2022-11-02T04:55:13.664Z,28.32
2022-11-02T04:56:13.858Z,38.20
2022-11-02T04:57:14.251Z,39.84
2022-11-02T04:58:13.589Z,21.24
2022-11-02T04:59:13.450Z,16.20
2022-11-02T05:00:13.399Z,17.08
2022-11-02T05:01:14.497Z,15.12
2022-11-02T05:02:13.447Z,23.12
2022-11-02T05:03:13.882Z,19.92
2022-11-02T05:04:13.766Z,18.64
2022-11-02T05:05:14.128Z,18.88
2022-11-02T05:06:13.405Z,35.68
2022-11-02T05:07:13.378Z,42.88
2022-11-02T05:08:13.553Z,42.04
2022-11-02T05:09:13.691Z,33.40
2022-11-02T05:10:14.006Z,41.32
2022-11-02T05:11:13.007Z,21.44
2022-11-02T05:12:12.994Z,41.56
2022-11-02T05:13:13.169Z,35.76
2022-11-02T05:14:13.069Z,16.92
2022-11-02T05:15:13.137Z,16.68
2022-11-02T05:16:13.027Z,17.12
2022-11-02T05:17:13.253Z,18.68
2022-11-02T05:18:18.460Z,18.72
2022-11-02T05:19:13.082Z,16.52
2022-11-02T05:20:12.958Z,13.72
2022-11-02T05:21:12.877Z,7.28
2022-11-02T05:22:13.987Z,19.16
2022-11-02T05:23:12.915Z,20.56
2022-11-02T05:24:12.823Z,28.80
2022-11-02T05:25:14.259Z,26.60
2022-11-02T05:26:13.609Z,36.84
2022-11-02T05:27:13.678Z,31.40
2022-11-02T05:28:13.576Z,21.28
2022-11-02T05:29:13.714Z,43.56
2022-11-02T05:30:13.560Z,28.08
2022-11-02T05:31:13.593Z,33.48
2022-11-02T05:32:13.509Z,14.48
2022-11-02T05:33:13.389Z,26.28
2022-11-02T05:34:13.343Z,49.36
2022-11-02T05:35:13.424Z,30.12
2022-11-02T05:36:13.401Z,24.28
2022-11-02T05:37:13.515Z,27.36
2022-11-02T05:38:13.465Z,28.28
2022-11-02T05:39:14.288Z,40.16
2022-11-02T05:40:13.237Z,32.32
2022-11-02T05:41:13.231Z,32.92
2022-11-02T05:42:13.281Z,21.84
2022-11-02T05:43:13.480Z,34.28
2022-11-02T05:44:13.402Z,40.72
2022-11-02T05:45:13.313Z,32.80
2022-11-02T05:46:13.477Z,29.60
2022-11-02T05:47:14.149Z,30.48
2022-11-02T05:48:13.650Z,39.24
2022-11-02T05:49:13.850Z,33.08
2022-11-02T05:50:13.745Z,31.44
2022-11-02T05:51:13.905Z,24.44
2022-11-02T05:52:12.977Z,26.24
2022-11-02T05:53:12.928Z,25.32
2022-11-02T05:54:13.305Z,36.88
2022-11-02T05:55:13.592Z,52.88
2022-11-02T05:56:13.624Z,53.25
2022-11-02T05:57:13.750Z,35.48
2022-11-02T05:58:14.042Z,49.56
2022-11-02T05:59:12.958Z,33.16
2022-11-02T06:00:12.953Z,43.72
2022-11-02T06:01:13.184Z,42.44
2022-11-02T06:02:13.498Z,45.20
2022-11-02T06:03:13.416Z,40.72
2022-11-02T06:04:13.400Z,33.40
2022-11-02T06:05:13.392Z,50.20
2022-11-02T06:06:13.394Z,33.76
2022-11-02T06:07:13.458Z,33.20
2022-11-02T06:08:18.728Z,15.72
2022-11-02T06:09:13.759Z,40.84
2022-11-02T06:10:13.667Z,47.48
2022-11-02T06:11:13.975Z,21.12
2022-11-02T06:12:12.818Z,33.60
2022-11-02T06:13:13.815Z,36.96
2022-11-02T06:14:14.127Z,67.16
2022-11-02T06:15:13.017Z,51.68
2022-11-02T06:16:13.219Z,38.20
2022-11-02T06:17:13.435Z,44.92
2022-11-02T06:18:13.536Z,54.20
2022-11-02T06:20:12.771Z,62.04
2022-11-02T06:21:13.890Z,52.64
2022-11-02T06:22:12.824Z,41.72
2022-11-02T06:23:13.841Z,34.40
2022-11-02T06:24:13.794Z,38.48
2022-11-02T06:25:13.711Z,51.96
2022-11-02T06:26:14.310Z,59.00
2022-11-02T06:27:13.374Z,59.40
2022-11-02T06:28:13.714Z,48.28
2022-11-02T06:29:13.928Z,54.56
2022-11-02T06:30:12.985Z,70.92
2022-11-02T06:31:12.939Z,41.76
2022-11-02T06:32:12.924Z,60.08
2022-11-02T06:33:13.532Z,48.16
2022-11-02T06:34:14.334Z,42.28
2022-11-02T06:35:13.244Z,28.32
2022-11-02T06:36:13.497Z,47.56
2022-11-02T06:37:13.405Z,29.72
2022-11-02T06:38:13.484Z,48.64
2022-11-02T06:39:13.381Z,44.32
2022-11-02T06:40:13.491Z,45.48
2022-11-02T06:41:13.493Z,30.76
2022-11-02T06:42:13.591Z,40.60
2022-11-02T06:43:17.643Z,20.44
2022-11-02T06:44:12.992Z,36.60
2022-11-02T06:45:12.869Z,42.96
2022-11-02T06:46:13.940Z,22.48
2022-11-02T06:47:12.865Z,25.52
2022-11-02T06:48:13.787Z,43.80
2022-11-02T06:49:13.967Z,34.68
2022-11-02T06:50:12.940Z,35.00
2022-11-02T06:51:12.995Z,50.00
2022-11-02T06:52:13.430Z,32.72
2022-11-02T06:53:13.328Z,49.80
2022-11-02T06:54:13.666Z,33.92
2022-11-02T06:55:13.606Z,49.52
2022-11-02T06:56:13.862Z,44.16
2022-11-02T06:57:14.017Z,36.96
2022-11-02T06:58:12.924Z,39.68
2022-11-02T06:59:12.883Z,35.12
2022-11-02T07:00:15.583Z,44.64
2022-11-02T07:01:23.475Z,47.76
2022-11-02T07:02:13.697Z,48.00
2022-11-02T07:03:13.587Z,36.40
2022-11-02T07:04:13.637Z,25.80
2022-11-02T07:05:13.939Z,33.36
2022-11-02T07:06:14.506Z,33.04
2022-11-02T07:07:13.706Z,32.28
2022-11-02T07:08:13.812Z,32.04
2022-11-02T07:09:14.068Z,19.72
2022-11-02T07:10:13.196Z,29.96
2022-11-02T07:11:13.068Z,28.44
2022-11-02T07:12:40.956Z,35.20
2022-11-02T07:13:13.492Z,42.72
2022-11-02T07:14:13.449Z,30.88
2022-11-02T07:15:13.542Z,30.92
2022-11-02T07:16:33.022Z,21.96
2022-11-02T07:17:12.994Z,18.40
2022-11-02T07:18:12.929Z,50.36
2022-11-02T07:19:13.254Z,41.12
2022-11-02T07:20:13.196Z,25.96
2022-11-02T07:21:13.688Z,44.28
2022-11-02T07:22:13.684Z,27.04
2022-11-02T07:23:13.703Z,38.08
2022-11-02T07:24:13.644Z,21.96
2022-11-02T07:25:13.474Z,29.36
2022-11-02T07:26:14.562Z,30.04
2022-11-02T07:27:13.822Z,92.84
2022-11-02T07:28:13.933Z,91.92
2022-11-02T07:29:36.375Z,91.80
2022-11-02T07:30:13.341Z,54.40
2022-11-02T07:31:13.541Z,70.52
2022-11-02T07:32:13.592Z,67.08
2022-11-02T07:33:13.506Z,76.88
2022-11-02T07:34:16.908Z,64.32
2022-11-02T07:35:13.196Z,81.72
2022-11-02T07:36:13.111Z,79.88
2022-11-02T07:37:13.423Z,62.32
2022-11-02T07:38:13.705Z,55.52
2022-11-02T07:39:13.759Z,53.48
2022-11-02T07:40:13.682Z,26.88
2022-11-02T07:41:13.591Z,26.48
2022-11-02T07:42:13.365Z,43.80
2022-11-02T07:43:13.328Z,94.12
2022-11-02T07:44:13.262Z,64.12
2022-11-02T07:45:13.160Z,50.64
2022-11-02T07:46:13.155Z,72.08
2022-11-02T07:47:13.362Z,56.20
2022-11-02T07:48:13.406Z,48.16
2022-11-02T07:49:17.318Z,51.20
2022-11-02T07:50:13.137Z,50.40
2022-11-02T07:51:13.185Z,39.12
2022-11-02T07:52:13.315Z,56.08
2022-11-02T07:53:13.557Z,46.28
2022-11-02T07:54:13.717Z,47.20
2022-11-02T07:55:13.593Z,63.12
2022-11-02T07:56:13.744Z,38.50
2022-11-02T07:57:13.680Z,31.60
2022-11-02T07:58:13.711Z,56.84
2022-11-02T07:59:13.689Z,43.36
2022-11-02T08:00:13.618Z,60.00
2022-11-02T08:01:13.959Z,50.44
2022-11-02T08:02:30.833Z,43.04
2022-11-02T08:03:13.000Z,57.84
2022-11-02T08:04:13.032Z,67.84
2022-11-02T08:05:12.952Z,28.88
2022-11-02T08:06:13.052Z,27.24
2022-11-02T08:07:13.014Z,28.16
2022-11-02T08:08:13.839Z,18.44
2022-11-02T08:09:13.992Z,18.24
2022-11-02T08:10:12.989Z,35.36
2022-11-02T08:11:12.845Z,39.52
2022-11-02T08:12:13.747Z,67.92
2022-11-02T08:13:13.893Z,67.36
2022-11-02T08:14:12.897Z,49.52
2022-11-02T08:15:12.731Z,56.00
2022-11-02T08:16:13.865Z,43.72
2022-11-02T08:17:14.315Z,31.60
2022-11-02T08:18:13.501Z,46.44
2022-11-02T08:19:13.506Z,63.04
2022-11-02T08:20:13.505Z,50.00
2022-11-02T08:21:13.662Z,60.28
2022-11-02T08:22:13.775Z,73.92
2022-11-02T08:23:13.885Z,59.48
2022-11-02T08:24:13.995Z,46.36
2022-11-02T08:25:13.163Z,52.32
2022-11-02T08:26:13.296Z,57.20
2022-11-02T08:27:13.254Z,54.24
2022-11-02T08:28:13.329Z,39.64
2022-11-02T08:29:13.265Z,32.32
2022-11-02T08:30:13.403Z,56.16
2022-11-02T08:31:13.804Z,38.40
2022-11-02T08:32:14.063Z,56.36
2022-11-02T08:33:13.239Z,44.20
2022-11-02T08:34:13.424Z,60.84
2022-11-02T08:35:13.341Z,47.52
2022-11-02T08:36:13.266Z,38.44
2022-11-02T08:37:13.514Z,37.92
2022-11-02T08:38:13.417Z,42.48
2022-11-02T08:39:18.461Z,45.12
2022-11-02T08:40:12.911Z,16.04
2022-11-02T08:41:13.130Z,25.24
2022-11-02T08:42:13.054Z,15.56
2022-11-02T08:43:13.189Z,43.60
2022-11-02T08:44:13.069Z,25.36
2022-11-02T08:45:12.928Z,23.24
2022-11-02T08:46:15.359Z,27.68
2022-11-02T08:47:13.395Z,38.96
2022-11-02T08:48:13.587Z,40.60
2022-11-02T08:49:13.878Z,48.00
2022-11-02T08:50:12.878Z,45.12
2022-11-02T08:51:14.176Z,41.92
2022-11-02T08:52:13.388Z,27.48
2022-11-02T08:53:13.243Z,35.28
2022-11-02T08:54:18.274Z,40.08
2022-11-02T08:55:13.266Z,52.32
2022-11-02T08:56:13.659Z,42.48
2022-11-02T08:57:13.938Z,40.02
2022-11-02T08:58:18.128Z,37.80
2022-11-02T08:59:13.283Z,37.32
2022-11-02T09:00:13.554Z,34.28
2022-11-02T09:01:13.733Z,46.12
2022-11-02T09:02:14.072Z,56.24
2022-11-02T09:03:14.408Z,88.80
2022-11-02T09:04:13.852Z,33.96
2022-11-02T09:05:14.035Z,51.80
2022-11-02T09:06:13.219Z,43.28
2022-11-02T09:07:13.140Z,40.48
2022-11-02T09:08:13.300Z,38.32
2022-11-02T09:09:13.360Z,43.52
2022-11-02T09:10:13.217Z,36.68
2022-11-02T09:11:13.091Z,26.20
2022-11-02T09:12:12.972Z,30.00
2022-11-02T09:13:13.105Z,56.60
2022-11-02T09:14:13.340Z,44.84
2022-11-02T09:15:13.291Z,69.24
2022-11-02T09:16:13.233Z,49.64
2022-11-02T09:17:13.158Z,37.04
2022-11-02T09:18:13.116Z,39.76
2022-11-02T09:19:12.928Z,46.72
2022-11-02T09:20:13.281Z,23.88
2022-11-02T09:21:13.437Z,38.68
2022-11-02T09:22:13.740Z,31.60
2022-11-02T09:23:13.902Z,62.32
2022-11-02T09:24:12.819Z,52.72
2022-11-02T09:25:13.803Z,29.00
2022-11-02T09:26:13.887Z,32.72
2022-11-02T09:27:13.992Z,27.16
2022-11-02T09:28:13.268Z,23.16
2022-11-02T09:29:13.802Z,25.84
2022-11-02T09:30:13.732Z,36.04
2022-11-02T09:31:13.663Z,30.48
2022-11-02T09:32:18.809Z,19.60
2022-11-02T09:33:13.931Z,24.24
2022-11-02T09:34:14.042Z,33.20
2022-11-02T09:35:13.951Z,44.96
2022-11-02T09:36:13.231Z,24.76
2022-11-02T09:37:13.047Z,9.76
2022-11-02T09:38:12.924Z,33.44
2022-11-02T09:39:12.846Z,36.08
2022-11-02T09:40:13.986Z,22.12
2022-11-02T09:41:16.106Z,66.24
2022-11-02T09:42:19.514Z,52.08
2022-11-02T09:43:13.558Z,34.51
2022-11-02T09:44:13.958Z,42.52
2022-11-02T09:45:12.909Z,18.08
2022-11-02T09:46:13.031Z,25.44
2022-11-02T09:48:10.565Z,24.36
2022-11-02T09:48:19.675Z,19.68
2022-11-02T09:49:13.261Z,11.96
2022-11-02T09:50:13.430Z,24.32
2022-11-02T09:51:13.721Z,20.00
2022-11-02T09:52:14.485Z,23.00
2022-11-02T09:53:13.649Z,21.12
2022-11-02T09:54:17.297Z,17.44
2022-11-02T09:55:13.388Z,26.92
2022-11-02T09:56:13.612Z,24.04
2022-11-02T09:57:13.581Z,17.68
2022-11-02T09:58:13.986Z,26.20
2022-11-02T09:59:13.230Z,39.48
2022-11-02T10:00:13.440Z,32.76
2022-11-02T10:01:13.515Z,26.24
2022-11-02T10:02:13.753Z,22.80
2022-11-02T10:03:13.792Z,15.32
2022-11-02T10:04:13.792Z,50.60
2022-11-02T10:05:13.750Z,47.16
2022-11-02T10:06:14.036Z,59.28
2022-11-02T10:07:12.901Z,23.72
2022-11-02T10:08:12.787Z,31.88
2022-11-02T10:09:19.126Z,40.36
2022-11-02T10:10:13.266Z,47.04
2022-11-02T10:11:13.594Z,45.60
2022-11-02T10:12:13.565Z,51.00
2022-11-02T10:13:13.466Z,63.00
2022-11-02T10:14:13.858Z,56.20
2022-11-02T10:15:13.962Z,38.28
2022-11-02T10:16:12.961Z,49.20
2022-11-02T10:17:12.954Z,37.72
2022-11-02T10:18:12.884Z,28.76
2022-11-02T10:19:32.969Z,6.80
2022-11-02T10:20:12.973Z,12.56
2022-11-02T10:21:12.927Z,8.16
2022-11-02T10:22:13.311Z,15.32
2022-11-02T10:23:13.366Z,34.04
2022-11-02T10:24:13.234Z,26.04
2022-11-02T10:25:13.201Z,14.60
2022-11-02T10:26:13.214Z,24.84
2022-11-02T10:27:14.136Z,26.08
2022-11-02T10:28:13.409Z,25.92
2022-11-02T10:29:13.614Z,54.60
2022-11-02T10:30:13.533Z,35.84
2022-11-02T10:31:15.643Z,32.16
2022-11-02T10:32:17.995Z,33.68
2022-11-02T10:33:13.060Z,30.72
2022-11-02T10:34:13.150Z,24.24
2022-11-02T10:35:31.579Z,19.52
2022-11-02T10:36:18.844Z,15.76
2022-11-02T10:37:13.500Z,40.88
2022-11-02T10:38:19.035Z,28.60
2022-11-02T10:40:13.433Z,16.32
2022-11-02T10:41:13.576Z,18.36
2022-11-02T10:43:13.363Z,21.04
2022-11-02T10:44:13.289Z,15.40
2022-11-02T10:45:13.366Z,25.28
2022-11-02T10:47:13.168Z,30.56
2022-11-02T10:48:13.508Z,23.04
2022-11-02T10:49:22.406Z,13.68
2022-11-02T10:50:13.801Z,31.54
2022-11-02T10:51:14.023Z,27.32
2022-11-02T10:52:13.118Z,27.00
2022-11-02T10:53:39.607Z,28.32
2022-11-02T10:54:12.865Z,13.32
2022-11-02T10:55:55.260Z,20.28
2022-11-02T10:56:13.156Z,17.40
2022-11-02T10:57:26.813Z,12.00
2022-11-02T10:58:13.923Z,17.81
2022-11-02T10:59:13.525Z,17.04
2022-11-02T11:00:13.585Z,20.56
2022-11-02T11:01:13.904Z,34.24
2022-11-02T11:03:17.178Z,26.56
2022-11-02T11:04:18.152Z,30.04
2022-11-02T11:05:13.078Z,33.08
2022-11-02T11:06:13.043Z,38.28
2022-11-02T11:07:39.612Z,17.52
2022-11-02T11:08:13.534Z,35.40
2022-11-02T11:09:13.496Z,64.68
2022-11-02T11:10:13.437Z,58.40
2022-11-02T11:11:13.369Z,38.28
2022-11-02T11:12:13.271Z,56.24
2022-11-02T11:16:20.629Z,16.16
2022-11-02T11:19:40.968Z,28.44
2022-11-02T11:20:13.429Z,42.36
2022-11-02T11:21:13.413Z,36.28
2022-11-02T11:22:13.874Z,41.56
2022-11-02T11:23:13.756Z,29.92
2022-11-02T11:24:13.753Z,40.16
2022-11-02T11:25:13.738Z,33.72
2022-11-02T11:26:13.677Z,51.48
2022-11-02T11:27:13.688Z,17.52
2022-11-02T11:28:13.694Z,20.36
2022-11-02T11:29:13.692Z,20.52
2022-11-02T11:30:13.970Z,29.48
2022-11-02T11:31:13.109Z,32.12
2022-11-02T11:32:13.042Z,21.40
2022-11-02T11:33:14.276Z,21.84
2022-11-02T11:34:13.180Z,28.00
2022-11-02T11:35:12.984Z,27.60
2022-11-02T11:36:12.953Z,28.96
2022-11-02T11:37:12.830Z,21.00
2022-11-02T11:38:13.722Z,10.72
2022-11-02T11:39:13.664Z,26.96
2022-11-02T11:40:14.675Z,37.36
2022-11-02T11:41:13.861Z,23.48
2022-11-02T11:42:13.790Z,19.80
2022-11-02T11:43:13.741Z,34.00
2022-11-02T11:44:13.660Z,33.48
2022-11-02T11:45:13.862Z,28.16
2022-11-02T11:46:14.280Z,23.80
2022-11-02T11:47:13.386Z,39.36
2022-11-02T11:48:13.523Z,46.72
2022-11-02T11:49:13.564Z,50.04
2022-11-02T11:50:22.906Z,41.16
2022-11-02T11:51:12.955Z,30.40
2022-11-02T11:52:13.106Z,18.60
2022-11-02T11:53:13.247Z,16.40
2022-11-02T11:54:13.142Z,21.28
2022-11-02T11:55:13.241Z,17.64
2022-11-02T11:56:13.518Z,28.92
2022-11-02T11:57:13.770Z,19.36
2022-11-02T11:58:13.810Z,14.84
2022-11-02T11:59:14.210Z,12.36
2022-11-02T12:00:13.287Z,19.12
2022-11-02T12:01:13.253Z,11.16
2022-11-02T12:02:13.490Z,20.40
2022-11-02T12:03:13.880Z,32.92
2022-11-02T12:04:12.784Z,11.92
2022-11-02T12:05:13.947Z,28.96
2022-11-02T12:06:13.135Z,20.00
2022-11-02T12:08:13.276Z,21.64
2022-11-02T12:09:13.117Z,45.00
2022-11-02T12:10:13.026Z,49.44
2022-11-02T12:12:12.854Z,64.08
2022-11-02T12:13:18.758Z,31.16
2022-11-02T12:14:13.960Z,41.84
2022-11-02T12:16:12.883Z,35.52
2022-11-02T12:17:14.047Z,23.68
2022-11-02T12:18:13.259Z,14.68
2022-11-02T12:19:13.314Z,20.20
2022-11-02T12:20:13.563Z,32.16
2022-11-02T12:21:14.034Z,60.20
2022-11-02T12:22:13.083Z,43.76
2022-11-02T12:23:13.162Z,44.16
2022-11-02T12:24:13.418Z,38.52
2022-11-02T12:25:13.574Z,64.16
2022-11-02T12:26:13.556Z,44.44
2022-11-02T12:27:13.468Z,46.48
2022-11-02T12:28:14.003Z,29.56
2022-11-02T12:29:13.186Z,33.24
2022-11-02T12:30:13.032Z,30.68
2022-11-02T12:31:12.929Z,17.28
2022-11-02T12:32:12.779Z,31.16
2022-11-02T12:33:13.963Z,19.12
2022-11-02T12:34:12.946Z,33.00
2022-11-02T12:35:28.261Z,24.64
2022-11-02T12:36:13.668Z,29.16
2022-11-02T12:37:41.336Z,44.84
2022-11-02T12:38:13.635Z,50.32
2022-11-02T12:39:13.903Z,62.60
2022-11-02T12:40:13.233Z,48.04
2022-11-02T12:41:13.487Z,28.16
2022-11-02T12:42:13.411Z,33.80
2022-11-02T12:43:13.503Z,27.32
2022-11-02T12:44:13.663Z,24.00
2022-11-02T12:45:13.640Z,34.16
2022-11-02T12:46:13.523Z,22.32
2022-11-02T12:47:13.814Z,30.24
2022-11-02T12:48:14.006Z,55.32
2022-11-02T12:49:12.952Z,40.92
2022-11-02T12:50:12.956Z,30.36
2022-11-02T12:51:13.335Z,39.48
2022-11-02T12:52:13.197Z,30.16
2022-11-02T12:53:13.339Z,40.92
2022-11-02T12:54:13.496Z,36.68
2022-11-02T12:55:17.077Z,32.96
2022-11-02T12:56:13.437Z,48.04
2022-11-02T12:57:13.552Z,67.08
2022-11-02T12:58:52.682Z,60.96
2022-11-02T12:59:13.655Z,23.40
2022-11-02T13:00:13.682Z,19.44
2022-11-02T13:01:14.149Z,29.60
2022-11-02T13:04:13.132Z,30.36
2022-11-02T13:05:13.016Z,43.76
2022-11-02T13:06:12.895Z,22.16
2022-11-02T13:07:12.899Z,17.72
2022-11-02T13:08:12.772Z,13.48